createdAt,value
2023-01-23T00:01:01.444Z,36.50
2023-01-23T00:03:29.653Z,36.55
2023-01-23T00:06:01.966Z,30.25
2023-01-23T00:08:29.923Z,31.75
2023-01-23T00:10:57.893Z,30.27
2023-01-23T00:13:27.069Z,32.97
2023-01-23T00:15:54.737Z,32.40
2023-01-23T00:18:21.651Z,33.00
2023-01-23T00:20:48.745Z,33.22
2023-01-23T00:23:16.929Z,31.30
2023-01-23T00:25:46.794Z,33.42
2023-01-23T00:28:19.708Z,32.58
2023-01-23T00:30:49.723Z,33.38
2023-01-23T00:33:17.048Z,36.22
2023-01-23T00:35:44.516Z,30.38
2023-01-23T00:38:11.581Z,33.65
2023-01-23T00:40:41.608Z,31.85
2023-01-23T00:43:09.212Z,32.38
2023-01-23T00:45:51.722Z,32.50
2023-01-23T00:48:25.875Z,30.60
2023-01-23T00:50:54.315Z,33.30
2023-01-23T00:53:22.123Z,33.53
2023-01-23T00:55:49.599Z,31.17
2023-01-23T00:58:19.735Z,30.55
2023-01-23T01:00:46.789Z,33.90
2023-01-23T01:03:17.101Z,33.95
2023-01-23T01:05:44.862Z,34.25
2023-01-23T01:08:12.330Z,29.85
2023-01-23T01:10:48.243Z,32.90
2023-01-23T01:13:22.652Z,33.15
2023-01-23T01:16:03.807Z,35.40
2023-01-23T01:18:34.836Z,32.00
2023-01-23T01:21:13.988Z,34.90
2023-01-23T01:23:50.221Z,32.92
2023-01-23T01:26:29.698Z,37.85
2023-01-23T01:28:57.293Z,33.33
2023-01-23T01:31:32.311Z,38.15
2023-01-23T01:33:59.278Z,30.92
2023-01-23T01:36:27.697Z,38.58
2023-01-23T01:38:54.771Z,32.08
2023-01-23T01:41:23.412Z,33.53
2023-01-23T01:43:53.677Z,39.35
2023-01-23T01:46:26.829Z,32.88
2023-01-23T01:49:30.622Z,36.75
2023-01-23T01:52:02.992Z,33.30
2023-01-23T01:54:42.155Z,35.47
2023-01-23T01:57:25.391Z,33.92
2023-01-23T02:00:16.096Z,33.30
2023-01-23T02:02:48.968Z,31.50
2023-01-23T02:05:43.677Z,30.95
2023-01-23T02:08:18.099Z,32.97
2023-01-23T02:10:46.705Z,31.23
2023-01-23T02:13:26.270Z,31.70
2023-01-23T02:15:53.579Z,32.28
2023-01-23T02:18:22.705Z,32.30
2023-01-23T02:20:55.808Z,32.28
2023-01-23T02:23:26.144Z,32.15
2023-01-23T02:26:05.747Z,30.40
2023-01-23T02:28:47.837Z,32.35
2023-01-23T02:31:16.750Z,36.08
2023-01-23T02:33:54.120Z,27.85
2023-01-23T02:36:24.344Z,31.35
2023-01-23T02:39:08.560Z,32.95
2023-01-23T02:41:40.267Z,31.45
2023-01-23T02:44:29.799Z,31.08
2023-01-23T02:47:08.900Z,31.33
2023-01-23T02:49:36.382Z,32.22
2023-01-23T02:52:03.843Z,33.25
2023-01-23T02:54:33.040Z,35.35
2023-01-23T02:57:00.556Z,34.65
2023-01-23T02:59:46.463Z,30.25
2023-01-23T03:02:15.210Z,34.00
2023-01-23T03:04:45.123Z,38.45
2023-01-23T03:07:13.907Z,35.63
2023-01-23T03:09:42.150Z,33.85
2023-01-23T03:12:09.829Z,35.17
2023-01-23T03:14:39.566Z,37.28
2023-01-23T03:17:06.679Z,33.20
2023-01-23T03:19:38.108Z,33.17
2023-01-23T03:22:05.085Z,35.72
2023-01-23T03:24:36.665Z,38.55
2023-01-23T03:27:06.724Z,41.22
2023-01-23T03:29:55.371Z,32.35
2023-01-23T03:32:24.074Z,31.50
2023-01-23T03:34:51.413Z,35.47
2023-01-23T03:37:20.561Z,31.75
2023-01-23T03:40:08.328Z,36.90
2023-01-23T03:42:37.860Z,32.67
2023-01-23T03:45:08.297Z,37.92
2023-01-23T03:47:39.706Z,38.72
2023-01-23T03:50:10.242Z,32.75
2023-01-23T03:52:41.082Z,31.02
2023-01-23T03:55:09.909Z,35.13
2023-01-23T03:57:38.903Z,33.20
2023-01-23T04:00:09.222Z,31.58
2023-01-23T04:02:40.331Z,35.95
2023-01-23T04:05:09.264Z,34.47
2023-01-23T04:07:39.079Z,31.95
2023-01-23T04:10:06.257Z,33.55
2023-01-23T04:12:33.587Z,33.03
2023-01-23T04:15:00.691Z,32.33
2023-01-23T04:17:30.205Z,33.20
2023-01-23T04:19:57.098Z,33.67
2023-01-23T04:22:24.143Z,37.92
2023-01-23T04:24:53.288Z,36.60
2023-01-23T04:27:20.993Z,34.88
2023-01-23T04:29:53.333Z,33.63
2023-01-23T04:32:21.101Z,33.88
2023-01-23T04:34:54.460Z,33.03
2023-01-23T04:37:21.869Z,35.78
2023-01-23T04:39:50.435Z,35.17
2023-01-23T04:42:17.563Z,32.22
2023-01-23T04:44:47.504Z,34.92
2023-01-23T04:47:14.940Z,35.03
2023-01-23T04:49:45.767Z,33.05
2023-01-23T04:52:13.340Z,34.03
2023-01-23T04:54:41.171Z,33.13
2023-01-23T04:57:09.205Z,35.33
2023-01-23T05:02:19.393Z,30.92
2023-01-23T05:10:14.897Z,31.45
2023-01-23T05:12:43.225Z,30.13
2023-01-23T05:15:11.518Z,29.80
2023-01-23T05:17:39.210Z,29.90
2023-01-23T05:20:11.469Z,31.50
2023-01-23T05:22:40.102Z,31.02
2023-01-23T05:25:09.028Z,32.45
2023-01-23T05:27:42.757Z,30.48
2023-01-23T05:30:15.694Z,33.00
2023-01-23T05:32:46.079Z,29.42
2023-01-23T05:35:17.559Z,30.17
2023-01-23T05:37:48.868Z,30.65
2023-01-23T05:40:18.847Z,29.73
2023-01-23T05:42:48.620Z,29.98
2023-01-23T05:45:16.559Z,32.00
2023-01-23T05:47:44.275Z,29.38
2023-01-23T05:50:19.208Z,31.52
2023-01-23T05:52:53.273Z,34.42
2023-01-23T05:55:36.422Z,30.35
2023-01-23T05:58:05.467Z,32.58
2023-01-23T06:00:33.516Z,30.00
2023-01-23T06:03:04.905Z,31.33
2023-01-23T06:05:41.720Z,31.15
2023-01-23T06:08:11.806Z,33.03
2023-01-23T06:10:38.905Z,31.17
2023-01-23T06:13:07.537Z,31.58
2023-01-23T06:18:24.623Z,28.23
2023-01-23T06:20:58.936Z,33.40
2023-01-23T06:42:14.201Z,28.42
2023-01-23T06:44:45.435Z,30.27
2023-01-23T06:47:14.336Z,31.75
2023-01-23T06:49:49.450Z,30.55
2023-01-23T06:55:08.434Z,31.83
2023-01-23T07:00:24.563Z,29.63
2023-01-23T07:16:40.160Z,29.52
2023-01-23T07:19:07.542Z,30.15
2023-01-23T07:21:35.226Z,28.73
2023-01-23T07:24:11.499Z,31.92
2023-01-23T07:26:41.264Z,28.77
2023-01-23T07:29:11.248Z,28.63
2023-01-23T07:31:40.690Z,29.27
2023-01-23T07:34:12.556Z,31.42
2023-01-23T07:36:44.852Z,30.63
2023-01-23T07:41:50.671Z,32.05
2023-01-23T07:44:26.474Z,26.83
2023-01-23T08:03:08.636Z,26.33
2023-01-23T08:05:43.743Z,26.48
2023-01-23T08:46:06.524Z,27.80
2023-01-23T09:07:29.795Z,25.58
2023-01-23T09:10:01.839Z,26.38
2023-01-23T09:12:40.927Z,27.50
2023-01-23T09:15:13.383Z,25.17
2023-01-23T09:20:28.245Z,25.05
2023-01-23T09:23:00.949Z,25.38
2023-01-23T09:33:37.449Z,24.73
2023-01-23T09:41:30.699Z,25.42
2023-01-23T09:54:44.161Z,26.83
2023-01-23T10:00:16.136Z,24.33
2023-01-23T10:05:21.820Z,24.38
2023-01-23T10:52:30.320Z,22.45
2023-01-23T10:58:24.232Z,23.17
2023-01-23T11:09:28.970Z,25.33
2023-01-23T11:14:34.955Z,22.48
2023-01-23T11:17:14.057Z,26.83
2023-01-23T11:22:43.467Z,24.90
2023-01-23T11:30:39.142Z,27.10
2023-01-23T11:58:49.053Z,28.60
2023-01-23T12:58:40.803Z,28.83
2023-01-23T13:44:07.890Z,29.80
2023-01-23T14:35:36.428Z,32.63
2023-01-23T15:28:56.499Z,37.65
2023-01-23T16:06:50.901Z,34.55
2023-01-23T16:11:56.674Z,34.03
2023-01-23T16:14:24.904Z,31.15
2023-01-23T16:16:58.215Z,39.78
2023-01-23T16:19:32.125Z,36.80
2023-01-23T16:22:07.047Z,34.95
2023-01-23T16:27:43.067Z,32.28
2023-01-23T16:30:29.507Z,34.30
2023-01-23T16:33:02.104Z,33.47
2023-01-23T16:35:29.356Z,37.80
2023-01-23T16:37:56.919Z,31.45
2023-01-23T16:40:28.054Z,36.00
2023-01-23T16:42:59.079Z,33.45
2023-01-23T16:45:38.712Z,37.65
2023-01-23T16:48:26.393Z,36.30
2023-01-23T16:51:04.607Z,35.03
2023-01-23T16:53:52.847Z,35.85
2023-01-23T16:56:28.561Z,30.52
2023-01-23T16:58:57.304Z,32.20
2023-01-23T17:01:24.956Z,32.17
2023-01-23T17:04:06.099Z,37.78
2023-01-23T17:06:34.871Z,36.13
2023-01-23T17:09:09.951Z,39.28
2023-01-23T17:11:46.196Z,38.80
2023-01-23T17:14:23.889Z,37.03
2023-01-23T17:17:32.175Z,38.83
2023-01-23T17:20:22.387Z,35.70
2023-01-23T17:23:13.565Z,35.80
2023-01-23T17:26:00.396Z,38.55
2023-01-23T17:28:29.869Z,38.88
2023-01-23T17:31:07.979Z,38.92
2023-01-23T17:33:40.967Z,33.85
2023-01-23T17:39:09.397Z,30.30
2023-01-23T17:41:46.664Z,37.38
2023-01-23T17:49:59.726Z,38.22
2023-01-23T17:52:33.281Z,35.33
2023-01-23T17:55:09.618Z,35.22
2023-01-23T17:57:41.025Z,36.80
2023-01-23T18:00:21.778Z,37.30
2023-01-23T18:03:25.718Z,38.33
2023-01-23T18:06:02.294Z,39.38
2023-01-23T18:11:31.023Z,36.15
2023-01-23T18:15:05.490Z,35.25
2023-01-23T18:18:04.262Z,36.72
2023-01-23T18:20:43.765Z,41.00
2023-01-23T18:29:37.710Z,33.35
2023-01-23T18:42:21.922Z,39.00
2023-01-23T18:47:31.554Z,33.63
2023-01-23T18:50:02.308Z,35.15
2023-01-23T18:52:53.634Z,36.78
2023-01-23T18:58:18.663Z,37.70
2023-01-23T19:00:58.941Z,33.08
2023-01-23T19:03:40.456Z,35.13
2023-01-23T19:06:18.608Z,29.73
2023-01-23T19:08:48.191Z,35.42
2023-01-23T19:11:31.577Z,34.85
2023-01-23T19:14:35.315Z,31.75
2023-01-23T19:20:20.250Z,31.70
2023-01-23T19:23:12.820Z,34.45
2023-01-23T19:26:00.180Z,31.45
2023-01-23T19:28:27.501Z,33.53
2023-01-23T19:30:55.082Z,33.15
2023-01-23T19:33:22.510Z,33.05
2023-01-23T19:35:51.466Z,31.73
2023-01-23T19:38:23.467Z,34.60
2023-01-23T19:40:50.842Z,37.83
2023-01-23T19:43:19.515Z,37.03
2023-01-23T19:45:48.228Z,34.80
2023-01-23T19:48:17.805Z,39.28
2023-01-23T19:50:47.232Z,36.78
2023-01-23T19:53:19.346Z,36.63
2023-01-23T19:55:46.504Z,36.13
2023-01-23T19:58:13.695Z,35.42
2023-01-23T20:00:41.101Z,32.35
2023-01-23T20:03:11.456Z,33.60
2023-01-23T20:05:39.323Z,31.30
2023-01-23T20:08:15.742Z,31.67
2023-01-23T20:10:54.683Z,34.92
2023-01-23T20:13:39.132Z,37.70
2023-01-23T20:16:32.781Z,29.95
2023-01-23T20:18:59.864Z,36.13
2023-01-23T20:21:30.971Z,27.67
2023-01-23T20:23:58.741Z,30.40
2023-01-23T20:26:28.603Z,31.52
2023-01-23T20:28:55.639Z,33.80
2023-01-23T20:31:25.920Z,34.30
2023-01-23T20:34:08.770Z,34.75
2023-01-23T20:36:37.063Z,32.08
2023-01-23T20:39:05.428Z,36.17
2023-01-23T20:41:32.776Z,34.08
2023-01-23T20:43:59.736Z,31.15
2023-01-23T20:46:27.408Z,32.67
2023-01-23T20:48:54.607Z,30.92
2023-01-23T20:51:25.741Z,31.80
2023-01-23T20:53:53.413Z,35.55
2023-01-23T20:59:37.230Z,29.55
2023-01-23T21:02:22.973Z,36.25
2023-01-23T21:04:54.536Z,33.78
2023-01-23T21:10:19.829Z,32.33
2023-01-23T21:12:49.574Z,37.17
2023-01-23T21:15:20.736Z,34.70
2023-01-23T21:17:51.206Z,32.67
2023-01-23T21:20:21.530Z,33.47
2023-01-23T21:22:48.518Z,33.67
2023-01-23T21:25:15.938Z,35.60
2023-01-23T21:27:42.827Z,34.67
2023-01-23T21:30:10.856Z,37.53
2023-01-23T21:32:37.780Z,33.65
2023-01-23T21:35:06.382Z,32.03
2023-01-23T21:37:33.483Z,42.05
2023-01-23T21:40:00.715Z,33.33
2023-01-23T21:45:09.077Z,32.95
2023-01-23T21:47:36.014Z,33.30
2023-01-23T21:55:41.437Z,34.95
2023-01-23T22:06:05.363Z,31.58
2023-01-23T22:08:32.403Z,27.73
2023-01-23T22:10:59.445Z,31.48
2023-01-23T22:13:26.886Z,29.40
2023-01-23T22:15:54.268Z,32.15
2023-01-23T22:18:21.585Z,28.98
2023-01-23T22:20:54.998Z,31.45
2023-01-23T22:23:22.942Z,31.63
2023-01-23T22:25:58.353Z,30.55
2023-01-23T22:28:25.382Z,30.88
2023-01-23T22:30:52.867Z,31.90
2023-01-23T22:33:20.383Z,32.92
2023-01-23T22:35:48.457Z,29.40
2023-01-23T22:38:16.224Z,29.85
2023-01-23T22:40:43.454Z,28.73
2023-01-23T22:43:11.856Z,31.08
2023-01-23T22:45:38.735Z,31.55
2023-01-23T22:48:08.566Z,26.48
2023-01-23T22:50:36.731Z,30.15
2023-01-23T22:53:04.105Z,28.25
2023-01-23T22:55:30.951Z,24.75
2023-01-23T22:57:58.168Z,30.83
2023-01-23T23:00:25.031Z,25.65
2023-01-23T23:02:52.210Z,29.38
2023-01-23T23:05:20.905Z,26.13
2023-01-23T23:07:47.930Z,27.30
2023-01-23T23:10:14.804Z,28.48
2023-01-23T23:12:41.739Z,31.00
2023-01-23T23:15:10.896Z,26.65
2023-01-23T23:17:37.762Z,29.52
2023-01-23T23:20:05.562Z,27.77
2023-01-23T23:22:32.793Z,24.95
2023-01-23T23:24:59.837Z,28.77
2023-01-23T23:27:27.392Z,26.90
2023-01-23T23:29:54.301Z,28.02
2023-01-23T23:32:21.631Z,27.38
2023-01-23T23:34:50.055Z,21.90
2023-01-23T23:37:17.083Z,28.55
2023-01-23T23:39:44.044Z,29.30
2023-01-23T23:42:11.081Z,26.30
2023-01-23T23:44:38.561Z,26.77
2023-01-23T23:47:05.361Z,29.63
2023-01-23T23:49:32.729Z,28.10
2023-01-23T23:51:59.613Z,27.85
2023-01-23T23:54:26.872Z,28.20
2023-01-23T23:56:53.742Z,28.05
2023-01-23T23:59:21.038Z,31.35
